Terminal Aerodrome Forecast
Issued by NWS

Current Version | Previous Version | Text Only | Print | Product List | Glossary On
Versions: 1 2 3 4 5 6 7 8 9 10 11 12 13 14 15 16 17 18
000
FTUS44 KLIX 181131
TAFMSY
TAF
KMSY 181131Z 1812/1912 12004KT 2SM +RA OVC030
     FM181400 16008KT 2SM +RA OVC035
      TEMPO 1814/1818 1SM TSRA BKN015CB OVC030
     FM190600 19009KT P6SM BKN020=

USA.gov is the U.S. government's official web portal to all federal, state and local government web resources and services.